Wainwright, AK

3:39 AM AKST on February 24, 2017 (GMT -0900)
Wiley Post-Will Rogers Memorial | | Change Station
Active Advisory: Winter Weather Advisory

Elev 43 ft 71.29 °N, 156.77 °W | Updated 39 minutes ago

Snow
Snow
-3 °F
Feels Like -29 °F
N
28
Wind Variable Wind from ENE
Gusts 36 mph

Today
High -- | Low -- °F
--% Chance of Precip.
Yesterday
High -- | Low -- °F
Precip. -- in
Pressure 29.89 in
Visibility 0.5 miles
Clouds Overcast 900 ft
Windchill -29 °F
Dew Point -9 °F
Humidity 75%
Rainfall 0.09 in
Snow Depth Not available.
9:22 AM 5:59 PM
Waning Crescent, 5% visible
SPECI PABR 241200Z 06024G31KT 1/2SM R07/4000V5000FT -SN BLSN OVC009 M19/M23 A2989 RMK AO2 PK WND 06029/1200 P0000 T11941228
Pressure 29.89 in
Visibility 0.5 miles
Clouds Overcast 900 ft
Windchill -29 °F
Dew Point -9 °F
Humidity 75%
Rainfall 0.09 in
Snow Depth Not available.
9:22 AM 5:59 PM
Waning Crescent, 5% visible
SPECI PABR 241200Z 06024G31KT 1/2SM R07/4000V5000FT -SN BLSN OVC009 M19/M23 A2989 RMK AO2 PK WND 06029/1200 P0000 T11941228

Get Your Daily Forecast Email!

Thanks for signing up!

Be on the lookout for a verification email in your inbox.

You'll start receiving the daily forecast at 8 AM.

×

10-Day Weather Forecast

Almanac

Astronomy

Feb. 24, 2017 Rise Set
Actual Time
Civil Twilight
Nautical Twilight
Astronomical Twilight
Moon
Length of Visible Light
Length of Day
Tomorrow will be .
, % of the Moon is Illuminated

Today's Extremes

State Highs State Lows

Community

WunderPhotos

Upload Photos

1,962,540 photos uploaded!

WunderBlog® & News

Nearby

Air Quality

  Air Quality AQ Index Pollutant
Not available.

Snow Depth

Station Depth Elevation

Earthquake Activity

City Distance Mag. Time & Date
Minimum magnitude displayed is 2.5.

Coastal Water Temperatures

Place Temperature

Stations

Nearby Weather Stations

Station Location Temp. Windchill Dew Point Humidity Wind Precip. Elev Updated Type
                   

Watches & Warnings

Winter Weather Advisory
Issued: 2:46 PM AKST Feb. 23, 2017 – National Weather Service

... Winter Weather Advisory remains in effect until noon akst
Friday...

* wind... south 25 to 40 mph with gusts to 55 mph.

* Blowing snow... reducing visibility to one half mile or less at
times.

* Snow... 3 to 7 inches.

* Timing... conditions will deteriorate this evening, then improve
early Friday afternoon as winds and snow diminish.

* Impacts... visibility will be greatly reduced and snow will
accumulate into drifts. Whiteout conditions may occur. Travel
and outdoor activities will be difficult.

Precautionary/preparedness actions...

A Winter Weather Advisory means that one or more winter weather
hazards are expected to cause travel difficulties.